sensor_id;sensor_type;location;lat;lon;timestamp;temperature;humidity
18797;DHT22;9526;52.612;13.300;2023-09-08T00:00:47;16.20;99.90
18797;DHT22;9526;52.612;13.300;2023-09-08T00:03:11;16.20;99.90
18797;DHT22;9526;52.612;13.300;2023-09-08T00:05:36;16.20;99.90
18797;DHT22;9526;52.612;13.300;2023-09-08T00:08:00;16.20;99.90
18797;DHT22;9526;52.612;13.300;2023-09-08T00:10:23;16.10;99.90
18797;DHT22;9526;52.612;13.300;2023-09-08T00:12:47;16.10;99.90
18797;DHT22;9526;52.612;13.300;2023-09-08T00:15:11;16.10;99.90
18797;DHT22;9526;52.612;13.300;2023-09-08T00:17:35;16.00;99.90
18797;DHT22;9526;52.612;13.300;2023-09-08T00:20:00;16.00;99.90
18797;DHT22;9526;52.612;13.300;2023-09-08T00:22:26;16.00;99.90
18797;DHT22;9526;52.612;13.300;2023-09-08T00:24:49;15.90;99.90
18797;DHT22;9526;52.612;13.300;2023-09-08T00:27:13;15.90;99.90
18797;DHT22;9526;52.612;13.300;2023-09-08T00:29:37;15.90;99.90
18797;DHT22;9526;52.612;13.300;2023-09-08T00:32:01;15.90;99.90
18797;DHT22;9526;52.612;13.300;2023-09-08T00:34:24;15.80;99.90
18797;DHT22;9526;52.612;13.300;2023-09-08T00:36:48;15.80;99.90
18797;DHT22;9526;52.612;13.300;2023-09-08T00:39:14;15.80;99.90
18797;DHT22;9526;52.612;13.300;2023-09-08T00:41:38;15.80;99.90
18797;DHT22;9526;52.612;13.300;2023-09-08T00:44:01;15.70;99.90
18797;DHT22;9526;52.612;13.300;2023-09-08T00:46:26;15.70;99.90
18797;DHT22;9526;52.612;13.300;2023-09-08T00:48:50;15.70;99.90
18797;DHT22;9526;52.612;13.300;2023-09-08T00:51:14;15.70;99.90
18797;DHT22;9526;52.612;13.300;2023-09-08T00:53:38;15.60;99.90
18797;DHT22;9526;52.612;13.300;2023-09-08T00:56:04;15.60;99.90
18797;DHT22;9526;52.612;13.300;2023-09-08T00:58:28;15.60;99.90
18797;DHT22;9526;52.612;13.300;2023-09-08T01:00:53;15.60;99.90
18797;DHT22;9526;52.612;13.300;2023-09-08T01:03:20;15.50;99.90
18797;DHT22;9526;52.612;13.300;2023-09-08T01:05:44;15.50;99.90
18797;DHT22;9526;52.612;13.300;2023-09-08T01:08:10;15.40;99.90
18797;DHT22;9526;52.612;13.300;2023-09-08T01:10:34;15.40;99.90
18797;DHT22;9526;52.612;13.300;2023-09-08T01:13:00;15.40;99.90
18797;DHT22;9526;52.612;13.300;2023-09-08T01:15:24;15.40;99.90
18797;DHT22;9526;52.612;13.300;2023-09-08T01:17:48;15.40;99.90
18797;DHT22;9526;52.612;13.300;2023-09-08T01:20:17;15.30;99.90
18797;DHT22;9526;52.612;13.300;2023-09-08T01:22:55;15.30;99.90
18797;DHT22;9526;52.612;13.300;2023-09-08T01:25:29;15.30;99.90
18797;DHT22;9526;52.612;13.300;2023-09-08T01:27:54;15.30;99.90
18797;DHT22;9526;52.612;13.300;2023-09-08T01:30:19;15.20;99.90
18797;DHT22;9526;52.612;13.300;2023-09-08T01:32:45;15.20;99.90
18797;DHT22;9526;52.612;13.300;2023-09-08T01:35:09;15.20;99.90
18797;DHT22;9526;52.612;13.300;2023-09-08T01:37:33;15.20;99.90
18797;DHT22;9526;52.612;13.300;2023-09-08T01:39:56;15.20;99.90
18797;DHT22;9526;52.612;13.300;2023-09-08T01:42:22;15.20;99.90
18797;DHT22;9526;52.612;13.300;2023-09-08T01:44:46;15.20;99.90
18797;DHT22;9526;52.612;13.300;2023-09-08T01:47:10;15.10;99.90
18797;DHT22;9526;52.612;13.300;2023-09-08T01:49:33;15.10;99.90
18797;DHT22;9526;52.612;13.300;2023-09-08T01:51:57;15.10;99.90
18797;DHT22;9526;52.612;13.300;2023-09-08T01:54:21;15.10;99.90
18797;DHT22;9526;52.612;13.300;2023-09-08T01:56:45;15.10;99.90
18797;DHT22;9526;52.612;13.300;2023-09-08T01:59:10;15.10;99.90
18797;DHT22;9526;52.612;13.300;2023-09-08T02:01:33;15.10;99.90
18797;DHT22;9526;52.612;13.300;2023-09-08T02:03:58;15.00;99.90
18797;DHT22;9526;52.612;13.300;2023-09-08T02:06:22;15.00;99.90
18797;DHT22;9526;52.612;13.300;2023-09-08T02:08:47;15.00;99.90
18797;DHT22;9526;52.612;13.300;2023-09-08T02:11:10;15.00;99.90
18797;DHT22;9526;52.612;13.300;2023-09-08T02:13:34;15.00;99.90
18797;DHT22;9526;52.612;13.300;2023-09-08T02:15:59;15.00;99.90
18797;DHT22;9526;52.612;13.300;2023-09-08T02:18:23;15.00;99.90
18797;DHT22;9526;52.612;13.300;2023-09-08T02:20:47;15.00;99.90
18797;DHT22;9526;52.612;13.300;2023-09-08T02:23:11;14.90;99.90
18797;DHT22;9526;52.612;13.300;2023-09-08T02:25:34;14.90;99.90
18797;DHT22;9526;52.612;13.300;2023-09-08T02:27:58;14.90;99.90
18797;DHT22;9526;52.612;13.300;2023-09-08T02:30:22;14.90;99.90
18797;DHT22;9526;52.612;13.300;2023-09-08T02:32:48;14.90;99.90
18797;DHT22;9526;52.612;13.300;2023-09-08T02:35:12;14.90;99.90
18797;DHT22;9526;52.612;13.300;2023-09-08T02:37:36;14.90;99.90
18797;DHT22;9526;52.612;13.300;2023-09-08T02:40:01;14.80;99.90
18797;DHT22;9526;52.612;13.300;2023-09-08T02:42:25;14.80;99.90
18797;DHT22;9526;52.612;13.300;2023-09-08T02:44:51;14.80;99.90
18797;DHT22;9526;52.612;13.300;2023-09-08T02:47:15;14.80;99.90
18797;DHT22;9526;52.612;13.300;2023-09-08T02:49:40;14.80;99.90
18797;DHT22;9526;52.612;13.300;2023-09-08T02:52:06;14.80;99.90
18797;DHT22;9526;52.612;13.300;2023-09-08T02:54:30;14.80;99.90
18797;DHT22;9526;52.612;13.300;2023-09-08T02:56:54;14.80;99.90
18797;DHT22;9526;52.612;13.300;2023-09-08T02:59:18;14.70;99.90
18797;DHT22;9526;52.612;13.300;2023-09-08T03:01:41;14.70;99.90
18797;DHT22;9526;52.612;13.300;2023-09-08T03:04:05;14.70;99.90
18797;DHT22;9526;52.612;13.300;2023-09-08T03:06:31;14.70;99.90
18797;DHT22;9526;52.612;13.300;2023-09-08T03:08:54;14.70;99.90
18797;DHT22;9526;52.612;13.300;2023-09-08T03:11:18;14.60;99.90
18797;DHT22;9526;52.612;13.300;2023-09-08T03:13:42;14.60;99.90
18797;DHT22;9526;52.612;13.300;2023-09-08T03:16:06;14.60;99.90
18797;DHT22;9526;52.612;13.300;2023-09-08T03:18:31;14.60;99.90
18797;DHT22;9526;52.612;13.300;2023-09-08T03:20:56;14.60;99.90
18797;DHT22;9526;52.612;13.300;2023-09-08T03:23:21;14.60;99.90
18797;DHT22;9526;52.612;13.300;2023-09-08T03:25:45;14.50;99.90
18797;DHT22;9526;52.612;13.300;2023-09-08T03:28:08;14.50;99.90
18797;DHT22;9526;52.612;13.300;2023-09-08T03:30:32;14.50;99.90
18797;DHT22;9526;52.612;13.300;2023-09-08T03:32:56;14.50;99.90
18797;DHT22;9526;52.612;13.300;2023-09-08T03:35:20;14.40;99.90
18797;DHT22;9526;52.612;13.300;2023-09-08T03:37:43;14.40;99.90
18797;DHT22;9526;52.612;13.300;2023-09-08T03:40:10;14.40;99.90
18797;DHT22;9526;52.612;13.300;2023-09-08T03:42:34;14.40;99.90
18797;DHT22;9526;52.612;13.300;2023-09-08T03:44:57;14.40;99.90
18797;DHT22;9526;52.612;13.300;2023-09-08T03:47:21;14.40;99.90
18797;DHT22;9526;52.612;13.300;2023-09-08T03:49:45;14.30;99.90
18797;DHT22;9526;52.612;13.300;2023-09-08T03:52:09;14.30;99.90
18797;DHT22;9526;52.612;13.300;2023-09-08T03:54:34;14.30;99.90
18797;DHT22;9526;52.612;13.300;2023-09-08T03:56:59;14.30;99.90
18797;DHT22;9526;52.612;13.300;2023-09-08T03:59:23;14.20;99.90
18797;DHT22;9526;52.612;13.300;2023-09-08T04:01:46;14.20;99.90
18797;DHT22;9526;52.612;13.300;2023-09-08T04:04:10;14.20;99.90
18797;DHT22;9526;52.612;13.300;2023-09-08T04:06:34;14.20;99.90
18797;DHT22;9526;52.612;13.300;2023-09-08T04:08:58;14.20;99.90
18797;DHT22;9526;52.612;13.300;2023-09-08T04:11:22;14.20;99.90
18797;DHT22;9526;52.612;13.300;2023-09-08T04:13:47;14.20;99.90
18797;DHT22;9526;52.612;13.300;2023-09-08T04:16:11;14.10;99.90
18797;DHT22;9526;52.612;13.300;2023-09-08T04:18:35;14.10;99.90
18797;DHT22;9526;52.612;13.300;2023-09-08T04:20:58;14.10;99.90
18797;DHT22;9526;52.612;13.300;2023-09-08T04:23:22;14.10;99.90
18797;DHT22;9526;52.612;13.300;2023-09-08T04:25:46;14.10;99.90
18797;DHT22;9526;52.612;13.300;2023-09-08T04:28:10;14.10;99.90
18797;DHT22;9526;52.612;13.300;2023-09-08T04:30:35;14.00;99.90
18797;DHT22;9526;52.612;13.300;2023-09-08T04:32:59;14.00;99.90
18797;DHT22;9526;52.612;13.300;2023-09-08T04:35:23;14.00;99.90
18797;DHT22;9526;52.612;13.300;2023-09-08T04:37:46;14.00;99.90
18797;DHT22;9526;52.612;13.300;2023-09-08T04:40:10;14.00;99.90
18797;DHT22;9526;52.612;13.300;2023-09-08T04:42:34;14.00;99.90
18797;DHT22;9526;52.612;13.300;2023-09-08T04:44:59;14.00;99.90
18797;DHT22;9526;52.612;13.300;2023-09-08T04:47:24;14.00;99.90
18797;DHT22;9526;52.612;13.300;2023-09-08T04:49:49;14.00;99.90
18797;DHT22;9526;52.612;13.300;2023-09-08T04:52:12;14.00;99.90
18797;DHT22;9526;52.612;13.300;2023-09-08T04:54:36;14.00;99.90
18797;DHT22;9526;52.612;13.300;2023-09-08T04:57:01;14.00;99.90
18797;DHT22;9526;52.612;13.300;2023-09-08T04:59:45;14.00;99.90
18797;DHT22;9526;52.612;13.300;2023-09-08T05:02:09;14.00;99.90
18797;DHT22;9526;52.612;13.300;2023-09-08T05:04:34;14.00;99.90
18797;DHT22;9526;52.612;13.300;2023-09-08T05:06:58;14.00;99.90
18797;DHT22;9526;52.612;13.300;2023-09-08T05:09:22;14.00;99.90
18797;DHT22;9526;52.612;13.300;2023-09-08T05:11:46;14.10;99.90
18797;DHT22;9526;52.612;13.300;2023-09-08T05:14:10;14.10;99.90
18797;DHT22;9526;52.612;13.300;2023-09-08T05:16:34;14.10;99.90
18797;DHT22;9526;52.612;13.300;2023-09-08T05:19:10;14.20;99.90
18797;DHT22;9526;52.612;13.300;2023-09-08T05:21:36;14.20;99.90
18797;DHT22;9526;52.612;13.300;2023-09-08T05:24:00;14.20;99.90
18797;DHT22;9526;52.612;13.300;2023-09-08T05:26:24;14.30;99.90
18797;DHT22;9526;52.612;13.300;2023-09-08T05:28:48;14.30;99.90
18797;DHT22;9526;52.612;13.300;2023-09-08T05:31:12;14.40;99.90
18797;DHT22;9526;52.612;13.300;2023-09-08T05:33:36;14.40;99.90
18797;DHT22;9526;52.612;13.300;2023-09-08T05:36:00;14.50;99.90
18797;DHT22;9526;52.612;13.300;2023-09-08T05:38:25;14.60;99.90
18797;DHT22;9526;52.612;13.300;2023-09-08T05:40:50;14.70;99.90
18797;DHT22;9526;52.612;13.300;2023-09-08T05:43:14;14.70;99.90
18797;DHT22;9526;52.612;13.300;2023-09-08T05:45:38;14.80;99.90
18797;DHT22;9526;52.612;13.300;2023-09-08T05:48:03;14.90;99.90
18797;DHT22;9526;52.612;13.300;2023-09-08T05:50:27;15.00;99.90
18797;DHT22;9526;52.612;13.300;2023-09-08T05:52:51;15.10;99.90
18797;DHT22;9526;52.612;13.300;2023-09-08T05:55:18;15.20;99.90
18797;DHT22;9526;52.612;13.300;2023-09-08T05:57:43;15.30;99.90
18797;DHT22;9526;52.612;13.300;2023-09-08T06:00:07;15.40;99.90
18797;DHT22;9526;52.612;13.300;2023-09-08T06:02:37;15.60;99.90
18797;DHT22;9526;52.612;13.300;2023-09-08T06:05:03;15.90;99.90
18797;DHT22;9526;52.612;13.300;2023-09-08T06:07:28;16.40;99.90
18797;DHT22;9526;52.612;13.300;2023-09-08T06:09:52;17.00;99.90
18797;DHT22;9526;52.612;13.300;2023-09-08T06:12:17;17.60;99.90
18797;DHT22;9526;52.612;13.300;2023-09-08T06:14:41;18.20;99.90
18797;DHT22;9526;52.612;13.300;2023-09-08T06:17:06;18.80;99.90
18797;DHT22;9526;52.612;13.300;2023-09-08T06:19:30;19.50;99.90
18797;DHT22;9526;52.612;13.300;2023-09-08T06:21:54;20.00;99.90
18797;DHT22;9526;52.612;13.300;2023-09-08T06:24:18;20.60;99.90
18797;DHT22;9526;52.612;13.300;2023-09-08T06:26:42;21.10;99.90
18797;DHT22;9526;52.612;13.300;2023-09-08T06:29:07;21.60;99.90
18797;DHT22;9526;52.612;13.300;2023-09-08T06:31:31;22.10;99.90
18797;DHT22;9526;52.612;13.300;2023-09-08T06:33:55;22.60;99.90
18797;DHT22;9526;52.612;13.300;2023-09-08T06:36:20;23.10;99.90
18797;DHT22;9526;52.612;13.300;2023-09-08T06:38:43;23.50;99.90
18797;DHT22;9526;52.612;13.300;2023-09-08T06:41:11;23.90;99.90
18797;DHT22;9526;52.612;13.300;2023-09-08T06:43:36;24.30;99.90
18797;DHT22;9526;52.612;13.300;2023-09-08T06:46:06;24.80;99.90
18797;DHT22;9526;52.612;13.300;2023-09-08T06:48:30;25.20;99.90
18797;DHT22;9526;52.612;13.300;2023-09-08T06:50:55;25.60;99.90
18797;DHT22;9526;52.612;13.300;2023-09-08T06:53:20;25.70;99.90
18797;DHT22;9526;52.612;13.300;2023-09-08T06:55:44;25.90;99.90
18797;DHT22;9526;52.612;13.300;2023-09-08T06:58:08;26.00;99.90
18797;DHT22;9526;52.612;13.300;2023-09-08T07:00:32;26.20;99.90
18797;DHT22;9526;52.612;13.300;2023-09-08T07:02:59;26.30;99.90
18797;DHT22;9526;52.612;13.300;2023-09-08T07:05:24;26.20;99.90
18797;DHT22;9526;52.612;13.300;2023-09-08T07:07:48;26.00;99.90
18797;DHT22;9526;52.612;13.300;2023-09-08T07:10:12;25.90;99.90
18797;DHT22;9526;52.612;13.300;2023-09-08T07:12:36;25.70;99.90
18797;DHT22;9526;52.612;13.300;2023-09-08T07:15:00;25.50;99.90
18797;DHT22;9526;52.612;13.300;2023-09-08T07:17:24;25.40;99.90
18797;DHT22;9526;52.612;13.300;2023-09-08T07:19:49;25.10;99.90
18797;DHT22;9526;52.612;13.300;2023-09-08T07:22:14;24.80;99.90
18797;DHT22;9526;52.612;13.300;2023-09-08T07:24:37;24.70;99.90
18797;DHT22;9526;52.612;13.300;2023-09-08T07:27:01;24.50;99.90
18797;DHT22;9526;52.612;13.300;2023-09-08T07:29:25;24.50;99.90
18797;DHT22;9526;52.612;13.300;2023-09-08T07:31:49;24.40;99.90
18797;DHT22;9526;52.612;13.300;2023-09-08T07:34:13;24.20;99.90
18797;DHT22;9526;52.612;13.300;2023-09-08T07:36:38;24.20;99.90
18797;DHT22;9526;52.612;13.300;2023-09-08T07:39:02;24.10;99.90
18797;DHT22;9526;52.612;13.300;2023-09-08T07:41:26;24.00;99.90
18797;DHT22;9526;52.612;13.300;2023-09-08T07:43:49;23.90;99.90
18797;DHT22;9526;52.612;13.300;2023-09-08T07:46:17;23.90;99.90
18797;DHT22;9526;52.612;13.300;2023-09-08T07:48:41;23.70;99.90
18797;DHT22;9526;52.612;13.300;2023-09-08T07:51:05;23.60;99.90
18797;DHT22;9526;52.612;13.300;2023-09-08T07:53:30;23.60;99.90
18797;DHT22;9526;52.612;13.300;2023-09-08T07:55:54;23.50;99.90
18797;DHT22;9526;52.612;13.300;2023-09-08T07:58:17;23.50;99.90
18797;DHT22;9526;52.612;13.300;2023-09-08T08:00:41;23.50;99.90
18797;DHT22;9526;52.612;13.300;2023-09-08T08:03:05;23.50;99.90
18797;DHT22;9526;52.612;13.300;2023-09-08T08:05:29;23.50;99.90
18797;DHT22;9526;52.612;13.300;2023-09-08T08:07:53;23.40;99.90
18797;DHT22;9526;52.612;13.300;2023-09-08T08:10:18;23.40;99.90
18797;DHT22;9526;52.612;13.300;2023-09-08T08:12:42;23.40;99.90
18797;DHT22;9526;52.612;13.300;2023-09-08T08:15:07;23.40;99.90
18797;DHT22;9526;52.612;13.300;2023-09-08T08:17:32;23.40;99.90
18797;DHT22;9526;52.612;13.300;2023-09-08T08:19:58;23.40;99.90
18797;DHT22;9526;52.612;13.300;2023-09-08T08:22:28;23.40;99.90
18797;DHT22;9526;52.612;13.300;2023-09-08T08:24:51;23.40;99.90
18797;DHT22;9526;52.612;13.300;2023-09-08T08:27:16;23.50;99.90
18797;DHT22;9526;52.612;13.300;2023-09-08T08:29:40;23.50;99.90
18797;DHT22;9526;52.612;13.300;2023-09-08T08:32:04;23.60;99.90
18797;DHT22;9526;52.612;13.300;2023-09-08T08:34:28;23.60;99.90
18797;DHT22;9526;52.612;13.300;2023-09-08T08:36:52;23.70;99.90
18797;DHT22;9526;52.612;13.300;2023-09-08T08:39:15;23.70;99.90
18797;DHT22;9526;52.612;13.300;2023-09-08T08:41:40;23.80;99.90
18797;DHT22;9526;52.612;13.300;2023-09-08T08:44:06;23.90;99.90
18797;DHT22;9526;52.612;13.300;2023-09-08T08:46:29;23.90;99.90
18797;DHT22;9526;52.612;13.300;2023-09-08T08:48:54;23.90;99.90
18797;DHT22;9526;52.612;13.300;2023-09-08T08:51:18;24.00;99.90
18797;DHT22;9526;52.612;13.300;2023-09-08T08:53:42;24.10;99.90
18797;DHT22;9526;52.612;13.300;2023-09-08T08:56:07;24.10;99.90
18797;DHT22;9526;52.612;13.300;2023-09-08T08:58:32;24.20;99.90
18797;DHT22;9526;52.612;13.300;2023-09-08T09:00:58;24.30;99.90
18797;DHT22;9526;52.612;13.300;2023-09-08T09:03:25;24.30;99.90
18797;DHT22;9526;52.612;13.300;2023-09-08T09:05:50;24.40;99.90
18797;DHT22;9526;52.612;13.300;2023-09-08T09:08:15;24.40;99.90
18797;DHT22;9526;52.612;13.300;2023-09-08T09:10:40;24.50;99.90
18797;DHT22;9526;52.612;13.300;2023-09-08T09:13:04;24.60;99.90
18797;DHT22;9526;52.612;13.300;2023-09-08T09:15:29;24.60;99.90
18797;DHT22;9526;52.612;13.300;2023-09-08T09:18:03;24.70;99.90
18797;DHT22;9526;52.612;13.300;2023-09-08T09:20:28;24.80;99.90
18797;DHT22;9526;52.612;13.300;2023-09-08T09:22:51;24.90;99.90
18797;DHT22;9526;52.612;13.300;2023-09-08T09:25:22;25.00;99.90
18797;DHT22;9526;52.612;13.300;2023-09-08T09:27:51;25.10;99.90
18797;DHT22;9526;52.612;13.300;2023-09-08T09:30:15;25.30;99.90
18797;DHT22;9526;52.612;13.300;2023-09-08T09:32:39;25.40;99.90
18797;DHT22;9526;52.612;13.300;2023-09-08T09:35:05;25.60;99.90
18797;DHT22;9526;52.612;13.300;2023-09-08T09:37:30;25.60;99.90
18797;DHT22;9526;52.612;13.300;2023-09-08T09:39:54;25.80;99.90
18797;DHT22;9526;52.612;13.300;2023-09-08T09:42:18;25.90;99.90
18797;DHT22;9526;52.612;13.300;2023-09-08T09:44:43;26.00;99.90
18797;DHT22;9526;52.612;13.300;2023-09-08T09:47:07;26.20;99.90
18797;DHT22;9526;52.612;13.300;2023-09-08T09:49:31;26.30;99.90
18797;DHT22;9526;52.612;13.300;2023-09-08T09:51:57;26.50;99.90
18797;DHT22;9526;52.612;13.300;2023-09-08T09:54:21;26.60;99.90
18797;DHT22;9526;52.612;13.300;2023-09-08T09:56:46;26.90;99.90
18797;DHT22;9526;52.612;13.300;2023-09-08T09:59:13;27.10;99.90
18797;DHT22;9526;52.612;13.300;2023-09-08T10:01:38;27.20;99.90
18797;DHT22;9526;52.612;13.300;2023-09-08T10:04:02;27.20;99.90
18797;DHT22;9526;52.612;13.300;2023-09-08T10:06:27;27.50;99.90
18797;DHT22;9526;52.612;13.300;2023-09-08T10:08:53;27.80;99.90
18797;DHT22;9526;52.612;13.300;2023-09-08T10:11:21;28.10;99.90
18797;DHT22;9526;52.612;13.300;2023-09-08T10:13:46;28.30;99.90
18797;DHT22;9526;52.612;13.300;2023-09-08T10:16:13;28.70;99.90
18797;DHT22;9526;52.612;13.300;2023-09-08T10:18:39;28.80;99.90
18797;DHT22;9526;52.612;13.300;2023-09-08T10:21:06;29.00;99.80
18797;DHT22;9526;52.612;13.300;2023-09-08T10:23:35;29.30;99.90
18797;DHT22;9526;52.612;13.300;2023-09-08T10:26:05;29.60;99.90
18797;DHT22;9526;52.612;13.300;2023-09-08T10:28:32;29.60;99.00
18797;DHT22;9526;52.612;13.300;2023-09-08T10:30:58;29.90;99.90
18797;DHT22;9526;52.612;13.300;2023-09-08T10:33:22;30.00;99.60
18797;DHT22;9526;52.612;13.300;2023-09-08T10:35:46;30.30;99.70
18797;DHT22;9526;52.612;13.300;2023-09-08T10:38:23;30.20;99.20
18797;DHT22;9526;52.612;13.300;2023-09-08T10:40:48;30.00;96.90
18797;DHT22;9526;52.612;13.300;2023-09-08T10:43:13;30.10;98.90
18797;DHT22;9526;52.612;13.300;2023-09-08T10:45:37;30.50;99.90
18797;DHT22;9526;52.612;13.300;2023-09-08T10:48:01;30.60;99.20
18797;DHT22;9526;52.612;13.300;2023-09-08T10:50:30;30.90;99.40
18797;DHT22;9526;52.612;13.300;2023-09-08T10:53:09;31.00;98.70
18797;DHT22;9526;52.612;13.300;2023-09-08T10:55:36;31.00;96.60
18797;DHT22;9526;52.612;13.300;2023-09-08T10:58:04;31.10;96.40
18797;DHT22;9526;52.612;13.300;2023-09-08T11:00:43;31.20;95.80
18797;DHT22;9526;52.612;13.300;2023-09-08T11:03:07;31.00;98.40
18797;DHT22;9526;52.612;13.300;2023-09-08T11:05:31;30.80;94.40
18797;DHT22;9526;52.612;13.300;2023-09-08T11:07:55;30.50;95.50
18797;DHT22;9526;52.612;13.300;2023-09-08T11:10:19;30.80;95.20
18797;DHT22;9526;52.612;13.300;2023-09-08T11:12:42;31.00;96.10
18797;DHT22;9526;52.612;13.300;2023-09-08T11:15:07;31.20;95.00
18797;DHT22;9526;52.612;13.300;2023-09-08T11:17:34;30.60;93.60
18797;DHT22;9526;52.612;13.300;2023-09-08T11:20:02;30.60;96.20
18797;DHT22;9526;52.612;13.300;2023-09-08T11:22:30;30.50;94.80
18797;DHT22;9526;52.612;13.300;2023-09-08T11:24:57;30.60;95.00
18797;DHT22;9526;52.612;13.300;2023-09-08T11:27:21;30.70;93.60
18797;DHT22;9526;52.612;13.300;2023-09-08T11:29:45;30.90;97.20
18797;DHT22;9526;52.612;13.300;2023-09-08T11:32:09;31.20;96.50
18797;DHT22;9526;52.612;13.300;2023-09-08T11:34:34;31.20;96.00
18797;DHT22;9526;52.612;13.300;2023-09-08T11:36:57;31.40;96.00
18797;DHT22;9526;52.612;13.300;2023-09-08T11:39:23;31.50;95.10
18797;DHT22;9526;52.612;13.300;2023-09-08T11:41:47;31.40;92.80
18797;DHT22;9526;52.612;13.300;2023-09-08T11:44:15;31.40;94.20
18797;DHT22;9526;52.612;13.300;2023-09-08T11:46:40;31.50;93.90
18797;DHT22;9526;52.612;13.300;2023-09-08T11:49:04;31.40;93.50
18797;DHT22;9526;52.612;13.300;2023-09-08T11:51:30;31.40;94.80
18797;DHT22;9526;52.612;13.300;2023-09-08T11:53:54;31.60;93.80
18797;DHT22;9526;52.612;13.300;2023-09-08T11:56:18;31.60;93.30
18797;DHT22;9526;52.612;13.300;2023-09-08T11:58:42;31.40;94.80
18797;DHT22;9526;52.612;13.300;2023-09-08T12:01:06;31.80;93.70
18797;DHT22;9526;52.612;13.300;2023-09-08T12:03:31;32.10;95.20
18797;DHT22;9526;52.612;13.300;2023-09-08T12:05:55;31.60;92.40
18797;DHT22;9526;52.612;13.300;2023-09-08T12:08:25;31.40;92.10
18797;DHT22;9526;52.612;13.300;2023-09-08T12:10:49;31.50;93.70
18797;DHT22;9526;52.612;13.300;2023-09-08T12:13:12;31.20;91.80
18797;DHT22;9526;52.612;13.300;2023-09-08T12:15:41;31.50;92.30
18797;DHT22;9526;52.612;13.300;2023-09-08T12:18:07;31.30;92.40
18797;DHT22;9526;52.612;13.300;2023-09-08T12:20:32;31.50;91.80
18797;DHT22;9526;52.612;13.300;2023-09-08T12:22:58;31.50;94.60
18797;DHT22;9526;52.612;13.300;2023-09-08T12:25:25;31.50;93.80
18797;DHT22;9526;52.612;13.300;2023-09-08T12:27:50;31.70;92.90
18797;DHT22;9526;52.612;13.300;2023-09-08T12:30:18;32.00;95.10
18797;DHT22;9526;52.612;13.300;2023-09-08T12:32:46;31.90;93.20
18797;DHT22;9526;52.612;13.300;2023-09-08T12:35:11;31.80;92.10
18797;DHT22;9526;52.612;13.300;2023-09-08T12:37:34;31.60;93.90
18797;DHT22;9526;52.612;13.300;2023-09-08T12:39:59;31.70;90.80
18797;DHT22;9526;52.612;13.300;2023-09-08T12:42:25;31.70;93.10
18797;DHT22;9526;52.612;13.300;2023-09-08T12:44:52;31.90;91.80
18797;DHT22;9526;52.612;13.300;2023-09-08T12:47:16;32.00;90.70
18797;DHT22;9526;52.612;13.300;2023-09-08T12:49:39;31.80;91.90
18797;DHT22;9526;52.612;13.300;2023-09-08T12:52:04;31.60;91.50
18797;DHT22;9526;52.612;13.300;2023-09-08T12:54:28;31.50;93.50
18797;DHT22;9526;52.612;13.300;2023-09-08T12:56:51;31.50;89.40
18797;DHT22;9526;52.612;13.300;2023-09-08T12:59:17;31.10;90.20
18797;DHT22;9526;52.612;13.300;2023-09-08T13:01:40;31.20;91.60
18797;DHT22;9526;52.612;13.300;2023-09-08T13:04:04;31.30;90.80
18797;DHT22;9526;52.612;13.300;2023-09-08T13:06:29;31.30;90.30
18797;DHT22;9526;52.612;13.300;2023-09-08T13:08:54;31.50;94.10
18797;DHT22;9526;52.612;13.300;2023-09-08T13:11:18;31.30;88.10
18797;DHT22;9526;52.612;13.300;2023-09-08T13:13:43;31.30;89.80
18797;DHT22;9526;52.612;13.300;2023-09-08T13:16:08;30.90;90.10
18797;DHT22;9526;52.612;13.300;2023-09-08T13:18:32;30.80;91.30
18797;DHT22;9526;52.612;13.300;2023-09-08T13:21:00;31.10;93.70
18797;DHT22;9526;52.612;13.300;2023-09-08T13:23:24;31.30;93.60
18797;DHT22;9526;52.612;13.300;2023-09-08T13:25:48;31.40;88.50
18797;DHT22;9526;52.612;13.300;2023-09-08T13:28:11;31.30;92.40
18797;DHT22;9526;52.612;13.300;2023-09-08T13:30:35;31.30;90.60
18797;DHT22;9526;52.612;13.300;2023-09-08T13:33:00;31.40;90.00
18797;DHT22;9526;52.612;13.300;2023-09-08T13:35:24;31.50;91.70
18797;DHT22;9526;52.612;13.300;2023-09-08T13:37:48;31.70;91.60
18797;DHT22;9526;52.612;13.300;2023-09-08T13:40:12;31.80;90.00
18797;DHT22;9526;52.612;13.300;2023-09-08T13:42:36;31.60;88.10
18797;DHT22;9526;52.612;13.300;2023-09-08T13:45:00;31.60;87.70
18797;DHT22;9526;52.612;13.300;2023-09-08T13:47:25;31.40;88.30
18797;DHT22;9526;52.612;13.300;2023-09-08T13:49:51;31.40;90.40
18797;DHT22;9526;52.612;13.300;2023-09-08T13:52:18;31.20;90.90
18797;DHT22;9526;52.612;13.300;2023-09-08T13:54:44;31.50;93.00
18797;DHT22;9526;52.612;13.300;2023-09-08T13:57:10;31.50;91.40
18797;DHT22;9526;52.612;13.300;2023-09-08T13:59:35;31.60;92.10
18797;DHT22;9526;52.612;13.300;2023-09-08T14:02:04;31.60;91.10
18797;DHT22;9526;52.612;13.300;2023-09-08T14:04:30;31.60;90.60
18797;DHT22;9526;52.612;13.300;2023-09-08T14:06:56;31.60;90.50
18797;DHT22;9526;52.612;13.300;2023-09-08T14:09:28;31.70;90.20
18797;DHT22;9526;52.612;13.300;2023-09-08T14:11:55;31.60;89.60
18797;DHT22;9526;52.612;13.300;2023-09-08T14:14:22;31.70;92.60
18797;DHT22;9526;52.612;13.300;2023-09-08T14:16:46;31.50;91.40
18797;DHT22;9526;52.612;13.300;2023-09-08T14:19:10;31.60;90.60
18797;DHT22;9526;52.612;13.300;2023-09-08T14:21:34;31.60;91.90
18797;DHT22;9526;52.612;13.300;2023-09-08T14:24:00;31.40;90.80
18797;DHT22;9526;52.612;13.300;2023-09-08T14:26:24;31.30;89.30
18797;DHT22;9526;52.612;13.300;2023-09-08T14:28:48;31.20;90.80
18797;DHT22;9526;52.612;13.300;2023-09-08T14:31:12;31.10;90.70
18797;DHT22;9526;52.612;13.300;2023-09-08T14:33:37;30.80;90.00
18797;DHT22;9526;52.612;13.300;2023-09-08T14:36:00;30.90;92.00
18797;DHT22;9526;52.612;13.300;2023-09-08T14:38:24;30.90;90.80
18797;DHT22;9526;52.612;13.300;2023-09-08T14:40:57;30.70;90.10
18797;DHT22;9526;52.612;13.300;2023-09-08T14:43:22;30.60;90.00
18797;DHT22;9526;52.612;13.300;2023-09-08T14:45:46;30.50;90.30
18797;DHT22;9526;52.612;13.300;2023-09-08T14:48:10;30.30;91.40
18797;DHT22;9526;52.612;13.300;2023-09-08T14:50:34;30.50;91.80
18797;DHT22;9526;52.612;13.300;2023-09-08T14:52:58;30.40;90.60
18797;DHT22;9526;52.612;13.300;2023-09-08T14:55:21;30.20;90.30
18797;DHT22;9526;52.612;13.300;2023-09-08T14:57:46;30.10;90.30
18797;DHT22;9526;52.612;13.300;2023-09-08T15:00:11;30.00;90.90
18797;DHT22;9526;52.612;13.300;2023-09-08T15:02:36;29.90;90.80
18797;DHT22;9526;52.612;13.300;2023-09-08T15:05:00;29.80;90.40
18797;DHT22;9526;52.612;13.300;2023-09-08T15:07:24;29.70;91.20
18797;DHT22;9526;52.612;13.300;2023-09-08T15:09:47;29.70;91.70
18797;DHT22;9526;52.612;13.300;2023-09-08T15:12:11;29.70;91.00
18797;DHT22;9526;52.612;13.300;2023-09-08T15:14:36;29.60;91.30